Terminal Aerodrome Forecast
Issued by NWS

Home | Current Version | Previous Version | Text Only | Print | Product List | Glossary On
Versions: 1 2 3 4 5 6 7 8 9 10 11 12 13
000
FTUS46 KEKA 290123 AAA
TAFUKI
TAF AMD
KUKI 290123Z 2901/2924 14006KT 2SM -RA BR BKN008 BKN015 OVC025
     FM291100 15004KT 6SM -SHRA BR FEW005 SCT009 OVC020
     FM292100 15008KT 3SM -RA BR SCT008 OVC015=

USA.gov is the U.S. government's official web portal to all federal, state and local government web resources and services.